sensor_id;sensor_type;location;lat;lon;timestamp;pressure;altitude;pressure_sealevel;temperature;humidity
27304;BME280;14791;52.392;13.092;2022-12-05T00:01:43;101391.14;;;10.35;53.24
27304;BME280;14791;52.392;13.092;2022-12-05T00:04:13;101392.48;;;10.35;53.24
27304;BME280;14791;52.392;13.092;2022-12-05T00:06:42;101399.08;;;10.37;53.22
27304;BME280;14791;52.392;13.092;2022-12-05T00:09:12;101402.61;;;10.37;53.20
27304;BME280;14791;52.392;13.092;2022-12-05T00:11:43;101402.20;;;10.36;53.19
27304;BME280;14791;52.392;13.092;2022-12-05T00:14:12;101395.14;;;10.35;53.16
27304;BME280;14791;52.392;13.092;2022-12-05T00:16:42;101396.10;;;10.34;53.18
27304;BME280;14791;52.392;13.092;2022-12-05T00:19:14;101389.02;;;10.33;53.23
27304;BME280;14791;52.392;13.092;2022-12-05T00:21:43;101396.64;;;10.32;53.20
27304;BME280;14791;52.392;13.092;2022-12-05T00:24:14;101398.84;;;10.33;53.25
27304;BME280;14791;52.392;13.092;2022-12-05T00:26:44;101384.62;;;10.32;53.30
27304;BME280;14791;52.392;13.092;2022-12-05T00:29:13;101381.95;;;10.32;53.27
27304;BME280;14791;52.392;13.092;2022-12-05T00:31:42;101385.48;;;10.33;53.24
27304;BME280;14791;52.392;13.092;2022-12-05T00:34:11;101381.00;;;10.33;53.24
27304;BME280;14791;52.392;13.092;2022-12-05T00:36:41;101378.33;;;10.33;53.27
27304;BME280;14791;52.392;13.092;2022-12-05T00:39:11;101381.00;;;10.33;53.33
27304;BME280;14791;52.392;13.092;2022-12-05T00:41:42;101391.14;;;10.35;53.36
27304;BME280;14791;52.392;13.092;2022-12-05T00:44:12;101395.63;;;10.35;53.29
27304;BME280;14791;52.392;13.092;2022-12-05T00:46:41;101390.76;;;10.34;53.25
27304;BME280;14791;52.392;13.092;2022-12-05T00:49:10;101388.09;;;10.34;53.19
27304;BME280;14791;52.392;13.092;2022-12-05T00:51:41;101382.81;;;10.33;53.16
27304;BME280;14791;52.392;13.092;2022-12-05T01:10:20;101381.25;;;10.10;53.62
27304;BME280;14791;52.392;13.092;2022-12-05T01:13:09;101380.87;;;10.09;53.70
27304;BME280;14791;52.392;13.092;2022-12-05T01:18:43;101381.34;;;10.08;53.74
27304;BME280;14791;52.392;13.092;2022-12-05T01:21:41;101378.26;;;10.07;53.76
27304;BME280;14791;52.392;13.092;2022-12-05T01:25:01;101379.12;;;10.08;53.73
27304;BME280;14791;52.392;13.092;2022-12-05T01:27:50;101374.00;;;10.03;53.85
27304;BME280;14791;52.392;13.092;2022-12-05T01:30:56;101363.97;;;9.99;53.86
27304;BME280;14791;52.392;13.092;2022-12-05T01:38:50;101354.63;;;9.99;54.06
27304;BME280;14791;52.392;13.092;2022-12-05T01:41:43;101351.41;;;10.01;54.02
27304;BME280;14791;52.392;13.092;2022-12-05T01:47:41;101352.27;;;10.02;54.02
27304;BME280;14791;52.392;13.092;2022-12-05T01:53:39;101353.45;;;9.96;54.09
27304;BME280;14791;52.392;13.092;2022-12-05T01:56:08;101347.57;;;9.98;53.98
27304;BME280;14791;52.392;13.092;2022-12-05T01:58:38;101356.12;;;9.96;54.03
27304;BME280;14791;52.392;13.092;2022-12-05T02:01:11;101356.12;;;9.96;53.97
27304;BME280;14791;52.392;13.092;2022-12-05T02:03:41;101361.45;;;9.96;54.00
27304;BME280;14791;52.392;13.092;2022-12-05T02:06:12;101358.38;;;9.95;54.08
27304;BME280;14791;52.392;13.092;2022-12-05T02:08:42;101358.78;;;9.96;54.16
27304;BME280;14791;52.392;13.092;2022-12-05T02:11:12;101351.16;;;9.97;54.13
27304;BME280;14791;52.392;13.092;2022-12-05T02:14:08;101351.09;;;9.99;54.18
27304;BME280;14791;52.392;13.092;2022-12-05T02:30:20;101368.51;;;9.97;54.45
27304;BME280;14791;52.392;13.092;2022-12-05T02:33:14;101372.52;;;9.97;54.46
27304;BME280;14791;52.392;13.092;2022-12-05T02:35:57;101365.68;;;10.00;54.47
27304;BME280;14791;52.392;13.092;2022-12-05T02:41:16;101362.63;;;9.99;54.57
27304;BME280;14791;52.392;13.092;2022-12-05T02:43:50;101359.42;;;10.01;54.61
27304;BME280;14791;52.392;13.092;2022-12-05T02:46:22;101357.29;;;9.99;54.57
27304;BME280;14791;52.392;13.092;2022-12-05T02:48:55;101355.89;;;10.01;54.44
27304;BME280;14791;52.392;13.092;2022-12-05T02:51:26;101357.67;;;10.00;54.38
27304;BME280;14791;52.392;13.092;2022-12-05T02:53:58;101361.23;;;10.01;54.34
27304;BME280;14791;52.392;13.092;2022-12-05T02:56:29;101354.24;;;9.98;54.35
27304;BME280;14791;52.392;13.092;2022-12-05T02:59:00;101351.16;;;9.97;54.45
27304;BME280;14791;52.392;13.092;2022-12-05T03:01:30;101351.16;;;9.97;54.60
27304;BME280;14791;52.392;13.092;2022-12-05T03:04:03;101343.16;;;9.97;54.58
27304;BME280;14791;52.392;13.092;2022-12-05T03:06:34;101340.90;;;9.98;54.68
27304;BME280;14791;52.392;13.092;2022-12-05T03:09:07;101338.99;;;10.00;54.65
27304;BME280;14791;52.392;13.092;2022-12-05T03:11:58;101339.88;;;10.01;54.56
27304;BME280;14791;52.392;13.092;2022-12-05T03:14:22;101338.07;;;10.01;54.58
27304;BME280;14791;52.392;13.092;2022-12-05T03:16:56;101339.88;;;10.01;54.65
27304;BME280;14791;52.392;13.092;2022-12-05T03:19:27;101337.21;;;10.01;54.65
27304;BME280;14791;52.392;13.092;2022-12-05T03:21:59;101336.32;;;10.00;54.63
27304;BME280;14791;52.392;13.092;2022-12-05T03:24:28;101338.55;;;10.01;54.63
27304;BME280;14791;52.392;13.092;2022-12-05T03:27:12;101334.06;;;10.01;54.64
27304;BME280;14791;52.392;13.092;2022-12-05T03:32:38;101340.73;;;10.01;54.60
27304;BME280;14791;52.392;13.092;2022-12-05T03:35:21;101341.66;;;10.00;54.60
27304;BME280;14791;52.392;13.092;2022-12-05T03:38:07;101348.11;;;9.96;54.75
27304;BME280;14791;52.392;13.092;2022-12-05T03:40:41;101351.70;;;9.95;54.77
27304;BME280;14791;52.392;13.092;2022-12-05T03:43:16;101341.98;;;9.94;54.79
27304;BME280;14791;52.392;13.092;2022-12-05T03:45:55;101338.36;;;9.95;54.75
27304;BME280;14791;52.392;13.092;2022-12-05T03:48:30;101339.22;;;9.96;54.72
27304;BME280;14791;52.392;13.092;2022-12-05T03:51:00;101328.16;;;9.95;54.74
27304;BME280;14791;52.392;13.092;2022-12-05T03:53:51;101329.11;;;9.94;54.73
27304;BME280;14791;52.392;13.092;2022-12-05T03:56:29;101329.49;;;9.95;54.78
27304;BME280;14791;52.392;13.092;2022-12-05T03:59:08;101334.89;;;9.93;54.88
27304;BME280;14791;52.392;13.092;2022-12-05T04:01:31;101335.21;;;9.96;54.88
27304;BME280;14791;52.392;13.092;2022-12-05T04:04:16;101340.90;;;9.98;54.86
27304;BME280;14791;52.392;13.092;2022-12-05T04:06:47;101342.61;;;9.99;54.83
27304;BME280;14791;52.392;13.092;2022-12-05T04:09:28;101340.80;;;10.00;54.79
27304;BME280;14791;52.392;13.092;2022-12-05T04:12:03;101347.00;;;10.00;54.82
27304;BME280;14791;52.392;13.092;2022-12-05T04:14:39;101342.07;;;10.01;54.83
27304;BME280;14791;52.392;13.092;2022-12-05T04:17:10;101338.45;;;10.03;54.80
27304;BME280;14791;52.392;13.092;2022-12-05T04:19:58;101342.87;;;10.04;54.75
27304;BME280;14791;52.392;13.092;2022-12-05T04:22:45;101334.31;;;10.06;54.72
27304;BME280;14791;52.392;13.092;2022-12-05T04:25:16;101338.99;;;10.00;54.87
27304;BME280;14791;52.392;13.092;2022-12-05T04:33:48;101334.45;;;10.03;54.88
27304;BME280;14791;52.392;13.092;2022-12-05T04:36:44;101337.53;;;10.04;54.85
27304;BME280;14791;52.392;13.092;2022-12-05T04:39:23;101334.92;;;10.02;54.88
27304;BME280;14791;52.392;13.092;2022-12-05T04:41:57;101332.89;;;9.98;54.92
27304;BME280;14791;52.392;13.092;2022-12-05T04:44:30;101329.27;;;9.99;54.93
27304;BME280;14791;52.392;13.092;2022-12-05T04:47:01;101333.11;;;10.03;54.92
27304;BME280;14791;52.392;13.092;2022-12-05T04:49:32;101329.90;;;10.05;54.86
27304;BME280;14791;52.392;13.092;2022-12-05T04:52:06;101334.70;;;10.07;54.84
27304;BME280;14791;52.392;13.092;2022-12-05T04:59:53;101343.75;;;10.13;54.86
27304;BME280;14791;52.392;13.092;2022-12-05T05:02:26;101341.08;;;10.13;54.82
27304;BME280;14791;52.392;13.092;2022-12-05T05:04:55;101333.83;;;10.15;54.73
27304;BME280;14791;52.392;13.092;2022-12-05T05:07:26;101336.91;;;10.16;54.72
27304;BME280;14791;52.392;13.092;2022-12-05T05:09:56;101335.48;;;10.17;54.71
27304;BME280;14791;52.392;13.092;2022-12-05T05:12:25;101337.22;;;10.18;54.76
27304;BME280;14791;52.392;13.092;2022-12-05T05:14:54;101344.20;;;10.21;54.77
27304;BME280;14791;52.392;13.092;2022-12-05T05:17:23;101340.90;;;10.25;54.71
27304;BME280;14791;52.392;13.092;2022-12-05T05:19:51;101341.25;;;10.27;54.68
27304;BME280;14791;52.392;13.092;2022-12-05T05:22:22;101339.37;;;10.29;54.61
27304;BME280;14791;52.392;13.092;2022-12-05T05:24:51;101341.49;;;10.31;54.57
27304;BME280;14791;52.392;13.092;2022-12-05T05:27:20;101342.28;;;10.33;54.48
27304;BME280;14791;52.392;13.092;2022-12-05T05:29:49;101340.95;;;10.33;54.45
27304;BME280;14791;52.392;13.092;2022-12-05T05:32:17;101344.47;;;10.34;54.50
27304;BME280;14791;52.392;13.092;2022-12-05T05:34:46;101342.28;;;10.33;54.51
27304;BME280;14791;52.392;13.092;2022-12-05T05:37:15;101346.70;;;10.34;54.48
27304;BME280;14791;52.392;13.092;2022-12-05T05:39:44;101344.03;;;10.34;54.50
27304;BME280;14791;52.392;13.092;2022-12-05T05:42:13;101346.22;;;10.35;54.50
27304;BME280;14791;52.392;13.092;2022-12-05T05:44:42;101347.14;;;10.34;54.56
27304;BME280;14791;52.392;13.092;2022-12-05T05:47:11;101344.95;;;10.33;54.63
27304;BME280;14791;52.392;13.092;2022-12-05T05:49:40;101348.95;;;10.33;54.67
27304;BME280;14791;52.392;13.092;2022-12-05T05:52:08;101345.43;;;10.33;54.70
27304;BME280;14791;52.392;13.092;2022-12-05T05:54:37;101350.36;;;10.32;54.69
27304;BME280;14791;52.392;13.092;2022-12-05T05:57:06;101341.11;;;10.30;54.78
27304;BME280;14791;52.392;13.092;2022-12-05T05:59:35;101349.13;;;10.30;54.86
27304;BME280;14791;52.392;13.092;2022-12-05T06:02:04;101351.31;;;10.31;54.88
27304;BME280;14791;52.392;13.092;2022-12-05T06:04:34;101349.50;;;10.31;54.90
27304;BME280;14791;52.392;13.092;2022-12-05T06:07:03;101357.45;;;10.33;54.95
27304;BME280;14791;52.392;13.092;2022-12-05T06:09:32;101353.82;;;10.34;54.94
27304;BME280;14791;52.392;13.092;2022-12-05T06:12:01;101355.09;;;10.35;54.92
27304;BME280;14791;52.392;13.092;2022-12-05T06:14:30;101351.87;;;10.37;54.84
27304;BME280;14791;52.392;13.092;2022-12-05T06:16:59;101363.34;;;10.39;54.86
27304;BME280;14791;52.392;13.092;2022-12-05T06:19:28;101353.11;;;10.39;54.92
27304;BME280;14791;52.392;13.092;2022-12-05T06:21:57;101356.13;;;10.41;54.92
27304;BME280;14791;52.392;13.092;2022-12-05T06:24:26;101356.50;;;10.42;54.86
27304;BME280;14791;52.392;13.092;2022-12-05T06:26:55;101355.48;;;10.45;54.80
27304;BME280;14791;52.392;13.092;2022-12-05T06:29:24;101351.85;;;10.46;54.77
27304;BME280;14791;52.392;13.092;2022-12-05T06:31:52;101361.06;;;10.49;54.75
27304;BME280;14791;52.392;13.092;2022-12-05T06:34:21;101362.78;;;10.50;54.71
27304;BME280;14791;52.392;13.092;2022-12-05T06:36:50;101358.77;;;10.50;54.64
27304;BME280;14791;52.392;13.092;2022-12-05T06:39:19;101376.55;;;10.51;54.64
27304;BME280;14791;52.392;13.092;2022-12-05T06:41:48;101367.09;;;10.53;54.72
27304;BME280;14791;52.392;13.092;2022-12-05T06:44:17;101372.37;;;10.54;54.73
27304;BME280;14791;52.392;13.092;2022-12-05T06:46:48;101370.19;;;10.54;54.71
27304;BME280;14791;52.392;13.092;2022-12-05T06:49:17;101375.42;;;10.55;54.68
27304;BME280;14791;52.392;13.092;2022-12-05T06:51:45;101381.63;;;10.56;54.67
27304;BME280;14791;52.392;13.092;2022-12-05T06:54:14;101385.63;;;10.56;54.66
27304;BME280;14791;52.392;13.092;2022-12-05T06:56:43;101380.70;;;10.57;54.67
27304;BME280;14791;52.392;13.092;2022-12-05T06:59:12;101385.09;;;10.58;54.66
27304;BME280;14791;52.392;13.092;2022-12-05T07:01:41;101384.16;;;10.59;54.64
27304;BME280;14791;52.392;13.092;2022-12-05T07:04:13;101382.83;;;10.59;54.71
27304;BME280;14791;52.392;13.092;2022-12-05T07:06:43;101386.36;;;10.59;54.71
27304;BME280;14791;52.392;13.092;2022-12-05T07:09:13;101381.88;;;10.60;54.75
27304;BME280;14791;52.392;13.092;2022-12-05T07:11:44;101381.33;;;10.62;54.73
27304;BME280;14791;52.392;13.092;2022-12-05T07:14:12;101385.33;;;10.62;54.75
27304;BME280;14791;52.392;13.092;2022-12-05T07:16:41;101393.73;;;10.63;54.70
27304;BME280;14791;52.392;13.092;2022-12-05T07:19:10;101391.47;;;10.64;54.69
27304;BME280;14791;52.392;13.092;2022-12-05T07:21:39;101392.80;;;10.64;54.70
27304;BME280;14791;52.392;13.092;2022-12-05T07:24:08;101389.17;;;10.65;54.66
27304;BME280;14791;52.392;13.092;2022-12-05T07:26:37;101384.62;;;10.67;54.69
27304;BME280;14791;52.392;13.092;2022-12-05T07:29:06;101387.70;;;10.68;54.67
27304;BME280;14791;52.392;13.092;2022-12-05T07:31:35;101385.89;;;10.69;54.59
27304;BME280;14791;52.392;13.092;2022-12-05T07:34:04;101388.45;;;10.70;54.54
27304;BME280;14791;52.392;13.092;2022-12-05T07:36:33;101391.06;;;10.72;54.57
27304;BME280;14791;52.392;13.092;2022-12-05T07:39:02;101392.33;;;10.73;54.70
27304;BME280;14791;52.392;13.092;2022-12-05T07:41:32;101385.10;;;10.75;54.68
27304;BME280;14791;52.392;13.092;2022-12-05T07:44:04;101381.47;;;10.76;54.63
27304;BME280;14791;52.392;13.092;2022-12-05T07:46:33;101384.94;;;10.78;54.68
27304;BME280;14791;52.392;13.092;2022-12-05T07:49:02;101388.88;;;10.80;54.64
27304;BME280;14791;52.392;13.092;2022-12-05T07:51:33;101391.86;;;10.82;54.66
27304;BME280;14791;52.392;13.092;2022-12-05T07:54:02;101383.36;;;10.83;54.63
27304;BME280;14791;52.392;13.092;2022-12-05T07:56:31;101387.27;;;10.84;54.57
27304;BME280;14791;52.392;13.092;2022-12-05T07:59:00;101385.48;;;10.85;54.60
27304;BME280;14791;52.392;13.092;2022-12-05T08:01:29;101387.67;;;10.85;54.67
27304;BME280;14791;52.392;13.092;2022-12-05T08:03:58;101387.67;;;10.85;54.69
27304;BME280;14791;52.392;13.092;2022-12-05T08:06:29;101385.80;;;10.88;54.72
27304;BME280;14791;52.392;13.092;2022-12-05T08:08:59;101398.61;;;10.90;54.73
27304;BME280;14791;52.392;13.092;2022-12-05T08:11:30;101389.15;;;10.91;54.68
27304;BME280;14791;52.392;13.092;2022-12-05T08:14:03;101393.09;;;10.93;54.61
27304;BME280;14791;52.392;13.092;2022-12-05T08:16:32;101397.65;;;10.91;54.62
27304;BME280;14791;52.392;13.092;2022-12-05T08:19:07;101401.18;;;10.91;54.69
27304;BME280;14791;52.392;13.092;2022-12-05T08:21:36;101399.77;;;10.93;54.74
27304;BME280;14791;52.392;13.092;2022-12-05T08:24:06;101399.77;;;10.93;54.73
27304;BME280;14791;52.392;13.092;2022-12-05T08:26:36;101396.14;;;10.94;54.62
27304;BME280;14791;52.392;13.092;2022-12-05T08:29:13;101398.38;;;10.94;54.62
27304;BME280;14791;52.392;13.092;2022-12-05T08:31:45;101399.61;;;10.96;54.61
27304;BME280;14791;52.392;13.092;2022-12-05T08:34:16;101400.94;;;10.96;54.65
27304;BME280;14791;52.392;13.092;2022-12-05T08:36:46;101402.69;;;10.97;54.66
27304;BME280;14791;52.392;13.092;2022-12-05T08:39:17;101402.69;;;10.97;54.67
27304;BME280;14791;52.392;13.092;2022-12-05T08:41:46;101400.39;;;10.98;54.64
27304;BME280;14791;52.392;13.092;2022-12-05T08:44:16;101400.39;;;10.98;54.66
27304;BME280;14791;52.392;13.092;2022-12-05T08:46:48;101397.72;;;10.98;54.69
27304;BME280;14791;52.392;13.092;2022-12-05T08:49:18;101395.42;;;10.99;54.69
27304;BME280;14791;52.392;13.092;2022-12-05T08:51:47;101399.84;;;11.00;54.74
27304;BME280;14791;52.392;13.092;2022-12-05T08:54:16;101397.95;;;11.02;54.69
27304;BME280;14791;52.392;13.092;2022-12-05T08:56:45;101398.81;;;11.02;54.62
27304;BME280;14791;52.392;13.092;2022-12-05T08:59:14;101401.01;;;11.03;54.55
27304;BME280;14791;52.392;13.092;2022-12-05T09:01:43;101395.66;;;11.03;54.57
27304;BME280;14791;52.392;13.092;2022-12-05T09:04:12;101396.45;;;11.05;54.63
27304;BME280;14791;52.392;13.092;2022-12-05T09:06:41;101403.13;;;11.05;54.64
27304;BME280;14791;52.392;13.092;2022-12-05T09:09:11;101405.25;;;11.07;54.58
27304;BME280;14791;52.392;13.092;2022-12-05T09:11:42;101404.78;;;11.07;54.45
27304;BME280;14791;52.392;13.092;2022-12-05T09:14:13;101409.27;;;11.07;54.37
27304;BME280;14791;52.392;13.092;2022-12-05T09:16:46;101405.33;;;11.05;54.38
27304;BME280;14791;52.392;13.092;2022-12-05T09:19:18;101406.77;;;11.04;54.40
27304;BME280;14791;52.392;13.092;2022-12-05T09:21:52;101405.43;;;11.04;54.51
27304;BME280;14791;52.392;13.092;2022-12-05T09:24:21;101403.20;;;11.03;54.53
27304;BME280;14791;52.392;13.092;2022-12-05T09:26:50;101400.94;;;11.04;54.53
27304;BME280;14791;52.392;13.092;2022-12-05T09:29:19;101403.52;;;11.06;54.47
27304;BME280;14791;52.392;13.092;2022-12-05T09:31:48;101406.05;;;11.09;54.42
27304;BME280;14791;52.392;13.092;2022-12-05T09:34:19;101404.60;;;11.11;54.38
27304;BME280;14791;52.392;13.092;2022-12-05T09:36:48;101407.20;;;11.12;54.34
27304;BME280;14791;52.392;13.092;2022-12-05T09:39:19;101406.25;;;11.13;54.31
27304;BME280;14791;52.392;13.092;2022-12-05T09:44:51;101403.44;;;11.16;54.22
27304;BME280;14791;52.392;13.092;2022-12-05T09:47:33;101403.27;;;11.11;54.30
27304;BME280;14791;52.392;13.092;2022-12-05T09:50:14;101406.42;;;11.10;54.36
27304;BME280;14791;52.392;13.092;2022-12-05T09:52:49;101400.28;;;11.08;54.35
27304;BME280;14791;52.392;13.092;2022-12-05T09:55:18;101400.77;;;11.07;54.38
27304;BME280;14791;52.392;13.092;2022-12-05T09:57:53;101396.27;;;11.08;54.36
27304;BME280;14791;52.392;13.092;2022-12-05T10:00:22;101396.69;;;11.09;54.26
27304;BME280;14791;52.392;13.092;2022-12-05T10:03:07;101395.35;;;11.09;54.28
27304;BME280;14791;52.392;13.092;2022-12-05T10:05:39;101396.69;;;11.09;54.34
27304;BME280;14791;52.392;13.092;2022-12-05T10:08:18;101394.02;;;11.09;54.43
27304;BME280;14791;52.392;13.092;2022-12-05T10:11:01;101399.26;;;11.11;54.38
27304;BME280;14791;52.392;13.092;2022-12-05T10:13:51;101394.94;;;11.08;54.31
27304;BME280;14791;52.392;13.092;2022-12-05T10:16:29;101389.94;;;11.02;54.47
27304;BME280;14791;52.392;13.092;2022-12-05T10:19:09;101389.94;;;11.02;54.47
27304;BME280;14791;52.392;13.092;2022-12-05T10:21:50;101391.83;;;11.00;54.48
27304;BME280;14791;52.392;13.092;2022-12-05T10:24:40;101393.95;;;11.02;54.47
27304;BME280;14791;52.392;13.092;2022-12-05T10:27:12;101393.40;;;11.04;54.71
27304;BME280;14791;52.392;13.092;2022-12-05T10:29:49;101393.40;;;11.04;54.71
27304;BME280;14791;52.392;13.092;2022-12-05T10:34:50;101396.83;;;11.06;54.49
27304;BME280;14791;52.392;13.092;2022-12-05T10:37:24;101399.91;;;11.07;54.50
27304;BME280;14791;52.392;13.092;2022-12-05T10:39:53;101398.50;;;11.09;54.58
27304;BME280;14791;52.392;13.092;2022-12-05T10:45:01;101392.02;;;11.13;54.41
27304;BME280;14791;52.392;13.092;2022-12-05T10:47:30;101388.87;;;11.13;54.64
27304;BME280;14791;52.392;13.092;2022-12-05T10:50:16;101389.28;;;11.14;54.60
27304;BME280;14791;52.392;13.092;2022-12-05T10:52:37;101394.08;;;11.16;54.62
27304;BME280;14791;52.392;13.092;2022-12-05T10:55:07;101392.73;;;11.16;54.63
27304;BME280;14791;52.392;13.092;2022-12-05T10:57:36;101390.44;;;11.17;54.63
27304;BME280;14791;52.392;13.092;2022-12-05T11:00:13;101391.70;;;11.19;54.58
27304;BME280;14791;52.392;13.092;2022-12-05T11:02:42;101386.25;;;11.20;54.54
27304;BME280;14791;52.392;13.092;2022-12-05T11:05:11;101382.25;;;11.20;54.53
27304;BME280;14791;52.392;13.092;2022-12-05T11:07:46;101385.33;;;11.21;54.51
27304;BME280;14791;52.392;13.092;2022-12-05T11:10:33;101385.87;;;11.19;54.45
27304;BME280;14791;52.392;13.092;2022-12-05T11:13:16;101385.87;;;11.19;54.45
27304;BME280;14791;52.392;13.092;2022-12-05T11:15:46;101386.66;;;11.21;54.51
27304;BME280;14791;52.392;13.092;2022-12-05T11:18:30;101388.00;;;11.21;54.56
27304;BME280;14791;52.392;13.092;2022-12-05T11:21:13;101389.72;;;11.22;54.58
27304;BME280;14791;52.392;13.092;2022-12-05T11:23:44;101384.55;;;11.19;54.94
27304;BME280;14791;52.392;13.092;2022-12-05T11:26:33;101384.55;;;11.19;54.94
27304;BME280;14791;52.392;13.092;2022-12-05T11:29:03;101381.55;;;11.25;54.75
27304;BME280;14791;52.392;13.092;2022-12-05T11:31:32;101385.08;;;11.26;54.77
27304;BME280;14791;52.392;13.092;2022-12-05T11:34:10;101382.71;;;11.28;54.75
27304;BME280;14791;52.392;13.092;2022-12-05T11:36:49;101381.20;;;11.32;54.59
27304;BME280;14791;52.392;13.092;2022-12-05T11:39:17;101366.19;;;11.29;54.59
27304;BME280;14791;52.392;13.092;2022-12-05T11:42:06;101366.19;;;11.29;54.59
27304;BME280;14791;52.392;13.092;2022-12-05T11:44:54;101372.63;;;11.34;54.54
27304;BME280;14791;52.392;13.092;2022-12-05T11:50:24;101369.16;;;11.32;54.74
27304;BME280;14791;52.392;13.092;2022-12-05T11:53:09;101367.83;;;11.32;54.75
27304;BME280;14791;52.392;13.092;2022-12-05T12:07:06;101358.87;;;11.33;54.84
27304;BME280;14791;52.392;13.092;2022-12-05T12:12:49;101368.44;;;11.37;54.70
27304;BME280;14791;52.392;13.092;2022-12-05T12:21:51;101361.19;;;11.39;54.65
27304;BME280;14791;52.392;13.092;2022-12-05T12:27:27;101361.85;;;11.35;54.59
27304;BME280;14791;52.392;13.092;2022-12-05T12:30:02;101361.85;;;11.35;54.59
27304;BME280;14791;52.392;13.092;2022-12-05T12:40:59;101359.48;;;11.38;54.42
27304;BME280;14791;52.392;13.092;2022-12-05T12:43:42;101359.17;;;11.35;54.52
27304;BME280;14791;52.392;13.092;2022-12-05T12:46:14;101354.27;;;11.35;54.56
27304;BME280;14791;52.392;13.092;2022-12-05T12:51:28;101347.44;;;11.38;54.32
27304;BME280;14791;52.392;13.092;2022-12-05T12:54:11;101347.44;;;11.38;54.32
27304;BME280;14791;52.392;13.092;2022-12-05T12:56:54;101339.06;;;11.44;54.37
27304;BME280;14791;52.392;13.092;2022-12-05T13:07:37;101336.23;;;11.47;54.59
27304;BME280;14791;52.392;13.092;2022-12-05T13:10:22;101335.09;;;11.51;54.47
27304;BME280;14791;52.392;13.092;2022-12-05T13:12:50;101337.22;;;11.53;54.50
27304;BME280;14791;52.392;13.092;2022-12-05T13:15:27;101338.00;;;11.55;54.46
27304;BME280;14791;52.392;13.092;2022-12-05T13:17:54;101337.73;;;11.60;54.40
27304;BME280;14791;52.392;13.092;2022-12-05T13:20:26;101335.96;;;11.67;54.06
27304;BME280;14791;52.392;13.092;2022-12-05T13:22:56;101335.96;;;11.67;54.06
27304;BME280;14791;52.392;13.092;2022-12-05T13:25:28;101335.33;;;11.71;54.18
27304;BME280;14791;52.392;13.092;2022-12-05T13:28:03;101335.33;;;11.71;54.18
27304;BME280;14791;52.392;13.092;2022-12-05T13:30:33;101338.67;;;11.75;54.13
27304;BME280;14791;52.392;13.092;2022-12-05T13:33:06;101338.67;;;11.75;54.13
27304;BME280;14791;52.392;13.092;2022-12-05T13:35:37;101336.78;;;11.77;54.11
27304;BME280;14791;52.392;13.092;2022-12-05T13:38:29;101338.04;;;11.78;54.08
27304;BME280;14791;52.392;13.092;2022-12-05T13:41:17;101343.09;;;11.76;54.10
27304;BME280;14791;52.392;13.092;2022-12-05T13:44:04;101345.92;;;11.73;54.19
27304;BME280;14791;52.392;13.092;2022-12-05T13:46:40;101342.09;;;11.69;54.25
27304;BME280;14791;52.392;13.092;2022-12-05T13:49:22;101331.17;;;11.65;54.27
27304;BME280;14791;52.392;13.092;2022-12-05T13:51:45;101342.39;;;11.72;54.18
27304;BME280;14791;52.392;13.092;2022-12-05T13:54:23;101347.00;;;11.77;53.96
27304;BME280;14791;52.392;13.092;2022-12-05T13:56:55;101343.39;;;11.78;54.03
27304;BME280;14791;52.392;13.092;2022-12-05T14:00:00;101343.39;;;11.78;54.03
27304;BME280;14791;52.392;13.092;2022-12-05T14:07:56;101344.81;;;11.77;54.25
27304;BME280;14791;52.392;13.092;2022-12-05T14:15:45;101353.62;;;11.79;54.08
27304;BME280;14791;52.392;13.092;2022-12-05T14:21:13;101350.16;;;11.77;54.17
27304;BME280;14791;52.392;13.092;2022-12-05T14:34:36;101344.25;;;11.79;54.33
27304;BME280;14791;52.392;13.092;2022-12-05T14:39:49;101342.80;;;11.80;54.34
27304;BME280;14791;52.392;13.092;2022-12-05T14:42:42;101346.37;;;11.81;54.26
27304;BME280;14791;52.392;13.092;2022-12-05T14:47:59;101343.84;;;11.78;54.31
27304;BME280;14791;52.392;13.092;2022-12-05T14:58:33;101342.47;;;11.70;54.34
27304;BME280;14791;52.392;13.092;2022-12-05T15:01:13;101340.57;;;11.73;54.49
27304;BME280;14791;52.392;13.092;2022-12-05T15:03:39;101342.31;;;11.74;54.46
27304;BME280;14791;52.392;13.092;2022-12-05T15:06:10;101348.05;;;11.75;54.45
27304;BME280;14791;52.392;13.092;2022-12-05T15:08:47;101346.70;;;11.75;54.47
27304;BME280;14791;52.392;13.092;2022-12-05T15:11:19;101346.70;;;11.75;54.52
27304;BME280;14791;52.392;13.092;2022-12-05T15:16:41;101335.33;;;11.71;54.63
27304;BME280;14791;52.392;13.092;2022-12-05T15:19:19;101331.61;;;11.74;54.69
27304;BME280;14791;52.392;13.092;2022-12-05T15:21:53;101336.11;;;11.80;54.68
27304;BME280;14791;52.392;13.092;2022-12-05T15:24:23;101343.20;;;11.81;54.64
27304;BME280;14791;52.392;13.092;2022-12-05T15:26:55;101343.88;;;11.85;54.65
27304;BME280;14791;52.392;13.092;2022-12-05T15:29:26;101345.95;;;11.88;54.57
27304;BME280;14791;52.392;13.092;2022-12-05T15:37:30;101352.39;;;11.93;54.47
27304;BME280;14791;52.392;13.092;2022-12-05T15:42:37;101368.53;;;11.91;54.61
27304;BME280;14791;52.392;13.092;2022-12-05T15:47:49;101365.36;;;11.92;54.69
27304;BME280;14791;52.392;13.092;2022-12-05T15:50:37;101360.79;;;11.94;54.67
27304;BME280;14791;52.392;13.092;2022-12-05T15:55:57;101373.32;;;11.94;54.60
27304;BME280;14791;52.392;13.092;2022-12-05T15:58:30;101367.30;;;11.90;54.61
27304;BME280;14791;52.392;13.092;2022-12-05T16:03:43;101372.87;;;11.85;54.73
27304;BME280;14791;52.392;13.092;2022-12-05T16:06:14;101363.36;;;11.80;54.89